首页
METAR-TAF:

METAR-TAF

机场 :

马德普拉塔, 阿根廷

纬度: 37-56S, 经度: 057-35W, 海拔: 18米

当前天气观测

该预报发布于1小时和13分钟前的02:00 UTC
风速9节,风向南转南东
温度 19°C
湿度 73%
气压 1011 hPa
能见度10公里或以上
多云层高于4800英尺

METAR: SAZM 220200Z 15009KT 9999 BKN048 19/14 Q1011

时间: 00:13 (03:13 UTC)

预报

该预报发布于4小时和13分钟前的23:00 UTC
预报有效从22日的 00点(UTC)到 22日的 24点(UTC)
风速10节,风向南转南东
能见度10公里或以上
多云层高于4500英尺
成为
从 22日的 02点(UTC)到 22日的 04点(UTC)
风速10节,风向东转东南
散云层高于2500英尺
成为
从 22日的 08点(UTC)到 22日的 10点(UTC)
风速10节,风向东北
能见度10公里或以上
散云层高于4000英尺
散云层高于10000英尺
成为
从 22日的 17点(UTC)到 22日的 19点(UTC)
风速20节,风向南转西南
能見度: 5000
散云层高于2500英尺
少量云层高于4000英尺, 积雨云.
阴天层高于5000英尺
阵雨
成为
从 22日的 21点(UTC)到 22日的 23点(UTC)
风速10节,风向
能见度10公里或以上
多云层高于3000英尺

TAF: SAZM 212300Z 2200/2224 16010KT 9999 BKN045 TX31/2217Z TN15/2209Z BECMG 2202/2204 11010KT SCT025 BECMG 2208/2210 05010KT 9999 SCT040 SCT100 BECMG 2217/2219 20020KT 5000 SHRA SCT025 FEW040CB OVC050 BECMG 2221/2223 18010KT 9999 BKN030

超过4000个机场的气象观测和天气预报(METAR&TAF报告)。

可查询的气象台以黄色和红色小点在地图上表示。

将鼠标移到小点上方,可查看气象台名称。

然后点击查看天气观测和预报。

如需切换地图:点击带黑十字的绿色按钮放大地图;点击带横线的绿色按钮缩小地图;或者点击绿色箭头查看邻近地区的地图。


METAR-TAF: